createdAt,value
2022-12-26T09:31:24.217Z,93.60
2022-12-26T09:33:56.556Z,94.50
2022-12-26T09:36:26.216Z,92.43
2022-12-26T09:38:59.299Z,77.28
2022-12-26T09:41:38.157Z,76.22
2022-12-26T09:44:07.936Z,67.20
2022-12-26T09:46:59.245Z,66.43
2022-12-26T09:49:31.933Z,75.22
2022-12-26T09:54:49.464Z,70.53
2022-12-26T09:57:36.827Z,73.72
2022-12-26T10:00:06.767Z,68.40
2022-12-26T10:02:39.619Z,99.70
2022-12-26T10:05:07.041Z,78.38
2022-12-26T10:07:42.745Z,81.10
2022-12-26T10:10:13.292Z,85.57
2022-12-26T10:13:00.895Z,82.07
2022-12-26T10:15:38.710Z,69.35
2022-12-26T10:18:26.314Z,75.40
2022-12-26T10:21:02.167Z,75.55
2022-12-26T10:23:39.727Z,78.30
2022-12-26T10:26:20.258Z,79.65
2022-12-26T10:28:53.751Z,75.43
2022-12-26T10:31:52.315Z,75.80
2022-12-26T10:34:29.882Z,76.63
2022-12-26T10:37:14.005Z,80.25
2022-12-26T10:39:51.201Z,70.18
2022-12-26T10:42:54.155Z,72.18
2022-12-26T10:45:42.122Z,80.65
2022-12-26T10:48:13.191Z,72.82
2022-12-26T10:50:44.682Z,74.47
2022-12-26T10:53:13.461Z,89.03
2022-12-26T10:55:40.321Z,76.78
2022-12-26T10:58:32.637Z,71.90
2022-12-26T11:01:27.275Z,81.93
2022-12-26T11:04:05.884Z,83.82
2022-12-26T11:06:38.063Z,74.88
2022-12-26T11:09:06.383Z,86.32
2022-12-26T11:11:47.592Z,81.63
2022-12-26T11:14:39.813Z,74.43
2022-12-26T11:17:13.879Z,74.33
2022-12-26T11:19:44.365Z,97.15
2022-12-26T11:22:23.827Z,82.32
2022-12-26T11:25:24.351Z,87.40
2022-12-26T11:27:56.467Z,73.00
2022-12-26T11:30:29.948Z,80.50
2022-12-26T11:33:25.993Z,88.10
2022-12-26T11:36:10.539Z,77.72
2022-12-26T11:38:59.768Z,80.53
2022-12-26T11:41:32.460Z,79.30
2022-12-26T11:47:12.365Z,74.43
2022-12-26T11:49:39.173Z,83.45
2022-12-26T11:52:34.087Z,75.20
2022-12-26T11:55:01.758Z,74.35
2022-12-26T11:57:31.846Z,79.45
2022-12-26T12:00:24.575Z,83.78
2022-12-26T12:02:51.729Z,79.65
2022-12-26T12:05:33.037Z,78.03
2022-12-26T12:08:11.910Z,80.75
2022-12-26T12:11:05.979Z,69.72
2022-12-26T12:13:42.120Z,77.63
2022-12-26T12:16:27.795Z,74.57
2022-12-26T12:19:16.437Z,66.13
2022-12-26T12:22:01.412Z,64.40
2022-12-26T12:24:48.879Z,78.70
2022-12-26T12:27:25.551Z,61.10
2022-12-26T12:30:13.763Z,74.47
2022-12-26T12:32:47.766Z,70.07
2022-12-26T12:35:26.202Z,64.07
2022-12-26T12:38:13.810Z,79.45
2022-12-26T12:40:40.552Z,63.88
2022-12-26T12:43:42.753Z,69.28
2022-12-26T12:46:46.536Z,50.90
2022-12-26T12:49:40.455Z,53.78
2022-12-26T12:52:45.808Z,45.72
2022-12-26T12:55:51.819Z,59.83
2022-12-26T12:58:41.812Z,57.92
2022-12-26T13:01:15.756Z,48.58
2022-12-26T13:03:54.292Z,48.28
2022-12-26T13:06:29.319Z,52.08
2022-12-26T13:09:02.546Z,63.75
2022-12-26T13:11:33.893Z,58.85
2022-12-26T13:14:12.906Z,62.75
2022-12-26T13:16:43.734Z,66.45
2022-12-26T13:19:25.550Z,56.88
2022-12-26T13:21:57.549Z,60.83
2022-12-26T13:24:36.051Z,54.80
2022-12-26T13:27:19.655Z,52.13
2022-12-26T13:29:50.718Z,55.33
2022-12-26T13:32:26.596Z,62.10
2022-12-26T13:34:56.659Z,60.55
2022-12-26T13:37:38.217Z,68.25
2022-12-26T13:40:20.337Z,72.32
2022-12-26T13:43:36.064Z,57.38
2022-12-26T13:46:03.064Z,74.03
2022-12-26T13:48:31.519Z,66.25
2022-12-26T13:51:00.436Z,65.65
2022-12-26T13:53:40.822Z,66.28
2022-12-26T13:56:19.807Z,62.05
2022-12-26T13:58:49.914Z,62.00
2022-12-26T14:01:28.079Z,72.22
2022-12-26T14:04:17.042Z,71.05
2022-12-26T14:07:21.690Z,62.05
2022-12-26T14:09:55.810Z,63.80
2022-12-26T14:12:42.420Z,73.43
2022-12-26T14:15:28.390Z,72.72
2022-12-26T14:18:29.150Z,79.57
2022-12-26T14:21:23.777Z,72.50
2022-12-26T14:24:17.920Z,81.55
2022-12-26T14:26:57.385Z,70.22
2022-12-26T14:29:48.793Z,68.63
2022-12-26T14:32:44.206Z,75.45
2022-12-26T14:35:22.364Z,83.07
2022-12-26T14:37:58.818Z,97.88
2022-12-26T14:40:34.315Z,68.05
2022-12-26T14:43:10.397Z,84.35
2022-12-26T14:45:37.354Z,77.97
2022-12-26T14:48:24.241Z,89.00
2022-12-26T14:51:03.177Z,79.15
2022-12-26T14:53:34.783Z,81.28
2022-12-26T14:56:20.516Z,85.70
2022-12-26T14:58:48.194Z,91.35
2022-12-26T15:01:18.309Z,77.88
2022-12-26T15:04:00.057Z,81.45
2022-12-26T15:06:55.156Z,89.03
2022-12-26T15:09:59.351Z,86.47
2022-12-26T15:12:45.564Z,85.40
2022-12-26T15:15:33.301Z,93.25
2022-12-26T15:18:35.266Z,87.60
2022-12-26T15:21:31.179Z,94.88
2022-12-26T15:24:16.848Z,88.07
2022-12-26T15:26:43.689Z,91.63
2022-12-26T15:29:36.595Z,91.88
2022-12-26T15:32:24.360Z,86.10
2022-12-26T15:34:58.443Z,87.50
2022-12-26T15:37:55.059Z,91.15
2022-12-26T15:40:32.865Z,89.68
2022-12-26T15:43:35.323Z,89.32
2022-12-26T15:46:22.325Z,88.83
2022-12-26T15:49:04.036Z,98.40
2022-12-26T15:51:55.841Z,94.65
2022-12-26T15:54:38.537Z,107.82
2022-12-26T15:57:24.334Z,81.22
2022-12-26T15:59:53.946Z,89.68
2022-12-26T16:02:26.651Z,89.45
2022-12-26T16:05:13.630Z,84.65
2022-12-26T16:08:08.973Z,82.28
2022-12-26T16:10:36.870Z,81.05
2022-12-26T16:13:12.476Z,72.93
2022-12-26T16:15:59.411Z,86.72
2022-12-26T16:18:28.417Z,94.90
2022-12-26T16:21:17.196Z,81.30
2022-12-26T16:23:46.341Z,80.10
2022-12-26T16:26:24.031Z,88.75
2022-12-26T16:28:51.747Z,87.68
2022-12-26T16:31:25.351Z,83.95
2022-12-26T16:33:54.149Z,79.63
2022-12-26T16:36:29.484Z,78.72
2022-12-26T16:38:56.539Z,73.57
2022-12-26T16:41:30.805Z,87.90
2022-12-26T16:44:18.299Z,90.05
2022-12-26T16:46:45.496Z,76.97
2022-12-26T16:49:12.629Z,89.70
2022-12-26T16:51:49.345Z,78.78
2022-12-26T16:54:22.645Z,80.18
2022-12-26T16:57:06.089Z,88.55
2022-12-26T16:59:55.300Z,81.72
2022-12-26T17:02:30.663Z,88.60
2022-12-26T17:05:05.521Z,67.32
2022-12-26T17:07:36.526Z,81.78
2022-12-26T17:10:07.014Z,88.57
2022-12-26T17:12:39.859Z,75.90
2022-12-26T17:15:07.879Z,81.40
2022-12-26T17:17:37.636Z,80.20
2022-12-26T17:20:22.550Z,80.03
2022-12-26T17:22:54.381Z,75.43
2022-12-26T17:25:29.538Z,71.20
2022-12-26T17:28:08.404Z,74.25
2022-12-26T17:30:43.323Z,80.50
2022-12-26T17:33:27.988Z,84.63
2022-12-26T17:38:51.077Z,74.85
2022-12-26T17:41:18.718Z,95.40
2022-12-26T17:43:46.722Z,72.95
2022-12-26T17:46:16.228Z,78.22
2022-12-26T17:48:44.432Z,101.65
2022-12-26T17:51:17.536Z,76.18
2022-12-26T17:53:50.194Z,83.78
2022-12-26T17:58:47.788Z,83.05
2022-12-26T18:01:20.769Z,104.80
2022-12-26T18:03:48.690Z,84.22
2022-12-26T18:06:17.170Z,78.30
2022-12-26T18:08:45.057Z,85.00
2022-12-26T18:11:14.050Z,78.70
2022-12-26T18:13:41.769Z,77.30
2022-12-26T18:16:15.124Z,78.80
2022-12-26T18:18:44.533Z,77.00
2022-12-26T18:21:18.570Z,82.03
2022-12-26T18:23:45.569Z,82.22
2022-12-26T18:26:27.598Z,83.55
2022-12-26T18:28:54.660Z,87.47
2022-12-26T18:31:21.674Z,80.53
2022-12-26T18:33:48.555Z,76.60
2022-12-26T18:36:17.149Z,79.10
2022-12-26T18:38:44.269Z,78.03
2022-12-26T18:41:22.313Z,73.40
2022-12-26T18:43:49.204Z,82.00
2022-12-26T18:46:23.960Z,68.22
2022-12-26T18:48:53.764Z,74.95
2022-12-26T18:51:21.231Z,70.10
2022-12-26T18:53:48.256Z,84.35
2022-12-26T18:56:18.688Z,92.68
2022-12-26T18:58:46.510Z,96.68
2022-12-26T19:01:15.360Z,84.40
2022-12-26T19:03:43.265Z,102.32
2022-12-26T19:06:25.548Z,90.88
2022-12-26T19:08:52.679Z,86.07
2022-12-26T19:11:20.154Z,72.50
2022-12-26T19:13:47.562Z,79.15
2022-12-26T19:16:15.785Z,72.40
2022-12-26T19:18:42.627Z,81.53
2022-12-26T19:21:13.657Z,84.97
2022-12-26T19:23:40.943Z,88.38
2022-12-26T19:26:13.119Z,70.30
2022-12-26T19:28:40.097Z,76.28
2022-12-26T19:31:08.244Z,77.10
2022-12-26T19:33:36.306Z,69.55
2022-12-26T19:36:03.592Z,80.18
2022-12-26T19:38:30.434Z,70.13
2022-12-26T19:41:15.548Z,68.18
2022-12-26T19:43:43.088Z,61.38
2022-12-26T19:46:12.767Z,68.97
2022-12-26T19:48:39.797Z,79.60
2022-12-26T19:51:12.565Z,69.28
2022-12-26T19:53:41.540Z,61.22
2022-12-26T19:56:14.554Z,62.75
2022-12-26T19:58:42.300Z,66.18
2022-12-26T20:01:11.644Z,73.90
2022-12-26T20:03:39.799Z,63.33
2022-12-26T20:06:16.132Z,76.90
2022-12-26T20:08:44.362Z,70.47
2022-12-26T20:11:15.185Z,74.38
2022-12-26T20:13:43.893Z,74.55
2022-12-26T20:16:37.293Z,72.55
2022-12-26T20:19:00.749Z,69.03
2022-12-26T20:21:30.562Z,75.88
2022-12-26T20:24:01.807Z,72.55
2022-12-26T20:26:29.327Z,77.57
2022-12-26T20:29:01.818Z,76.90
2022-12-26T20:31:31.638Z,69.88
2022-12-26T20:33:59.365Z,88.15
2022-12-26T20:36:29.592Z,66.85
2022-12-26T20:38:59.237Z,66.32
2022-12-26T20:41:27.444Z,72.63
2022-12-26T20:43:54.870Z,70.43
2022-12-26T20:46:24.102Z,67.05
2022-12-26T20:48:53.549Z,75.32
2022-12-26T20:51:23.889Z,73.95
2022-12-26T20:53:52.116Z,86.65
2022-12-26T20:56:19.923Z,73.55
2022-12-26T20:58:47.035Z,73.68
2022-12-26T21:01:19.935Z,75.95
2022-12-26T21:03:48.162Z,74.82
2022-12-26T21:06:18.425Z,63.40
2022-12-26T21:08:47.039Z,76.68
2022-12-26T21:11:20.126Z,68.85
2022-12-26T21:13:48.375Z,67.57
2022-12-26T21:16:25.211Z,73.55
2022-12-26T21:18:52.547Z,68.28
2022-12-26T21:21:23.128Z,81.78
2022-12-26T21:23:55.084Z,69.45
2022-12-26T21:26:21.888Z,73.55
2022-12-26T21:28:49.958Z,70.35
2022-12-26T21:31:18.688Z,80.78
2022-12-26T21:33:45.578Z,77.35
2022-12-26T21:36:13.937Z,73.15
2022-12-26T21:38:41.598Z,72.85
2022-12-26T21:41:10.245Z,70.00
2022-12-26T21:43:37.369Z,71.32
2022-12-26T21:46:09.928Z,78.15
2022-12-26T21:51:08.538Z,74.85
2022-12-26T21:53:35.794Z,74.20
2022-12-26T21:56:09.607Z,81.13
2022-12-26T21:58:58.507Z,86.35
2022-12-26T22:01:26.437Z,88.53
2022-12-26T22:04:12.831Z,77.18
2022-12-26T22:06:42.665Z,72.45
2022-12-26T22:09:10.077Z,63.20
2022-12-26T22:11:56.037Z,74.25
2022-12-26T22:14:23.077Z,70.70
2022-12-26T22:16:53.752Z,70.65
2022-12-26T22:19:20.904Z,75.97
